createdAt,value
2022-08-27T00:01:25.457Z,9.77
2022-08-27T00:03:56.123Z,9.48
2022-08-27T00:06:25.233Z,10.18
2022-08-27T00:08:53.550Z,10.60
2022-08-27T00:11:25.546Z,10.77
2022-08-27T00:13:53.887Z,10.85
2022-08-27T00:16:21.761Z,12.70
2022-08-27T00:18:49.655Z,10.27
2022-08-27T00:21:18.925Z,10.20
2022-08-27T00:23:46.833Z,10.38
2022-08-27T00:26:15.556Z,10.60
2022-08-27T00:28:43.535Z,10.95
2022-08-27T00:31:12.310Z,11.15
2022-08-27T00:33:41.354Z,11.60
2022-08-27T00:36:12.147Z,12.43
2022-08-27T00:38:41.342Z,11.98
2022-08-27T00:41:11.609Z,12.57
2022-08-27T00:43:57.504Z,11.88
2022-08-27T00:46:27.827Z,11.68
2022-08-27T00:49:00.296Z,10.38
2022-08-27T00:51:30.583Z,12.23
2022-08-27T00:53:59.866Z,10.80
2022-08-27T00:56:32.131Z,12.32
2022-08-27T00:59:02.409Z,10.85
2022-08-27T01:01:32.654Z,11.73
2022-08-27T01:04:06.091Z,10.38
2022-08-27T01:06:37.372Z,11.20
2022-08-27T01:09:16.862Z,11.48
2022-08-27T01:11:45.170Z,10.95
2022-08-27T01:14:12.776Z,11.80
2022-08-27T01:16:45.009Z,10.85
2022-08-27T01:19:40.964Z,9.65
2022-08-27T01:22:25.134Z,10.52
2022-08-27T01:24:57.056Z,10.80
2022-08-27T01:27:27.701Z,11.93
2022-08-27T01:29:55.549Z,11.52
2022-08-27T01:32:26.476Z,11.10
2022-08-27T01:37:57.068Z,11.77
2022-08-27T01:40:25.296Z,11.43
2022-08-27T01:42:55.635Z,11.38
2022-08-27T01:45:28.524Z,11.32
2022-08-27T01:47:57.060Z,11.73
2022-08-27T01:50:28.704Z,11.07
2022-08-27T01:52:56.533Z,11.68
2022-08-27T01:55:26.726Z,11.30
2022-08-27T01:57:56.206Z,12.00
2022-08-27T02:00:30.693Z,12.35
2022-08-27T02:02:59.315Z,13.55
2022-08-27T02:05:28.696Z,13.10
2022-08-27T02:07:57.019Z,13.00
2022-08-27T02:10:27.922Z,13.27
2022-08-27T02:12:55.160Z,11.65
2022-08-27T02:15:24.334Z,10.40
2022-08-27T02:17:52.752Z,11.20
2022-08-27T02:20:21.147Z,11.07
2022-08-27T02:22:49.935Z,10.38
2022-08-27T02:25:20.159Z,11.23
2022-08-27T02:27:50.144Z,11.52
2022-08-27T02:30:22.919Z,11.30
2022-08-27T02:32:52.424Z,11.60
2022-08-27T02:35:23.630Z,11.82
2022-08-27T02:37:51.820Z,10.65
2022-08-27T02:40:22.435Z,11.15
2022-08-27T02:42:50.144Z,11.25
2022-08-27T02:45:19.169Z,11.25
2022-08-27T02:47:48.777Z,12.07
2022-08-27T02:50:17.146Z,11.55
2022-08-27T02:52:48.393Z,12.05
2022-08-27T02:55:17.325Z,11.95
2022-08-27T02:57:45.364Z,12.00
2022-08-27T03:00:16.662Z,12.98
2022-08-27T03:02:44.323Z,13.23
2022-08-27T03:05:13.132Z,13.40
2022-08-27T03:07:41.181Z,12.88
2022-08-27T03:10:10.368Z,11.80
2022-08-27T03:12:38.795Z,11.63
2022-08-27T03:15:08.635Z,12.60
2022-08-27T03:17:55.137Z,12.82
2022-08-27T03:20:23.001Z,12.82
2022-08-27T03:22:50.624Z,12.75
2022-08-27T03:25:18.474Z,12.82
2022-08-27T03:27:45.832Z,11.95
2022-08-27T03:30:16.582Z,11.65
2022-08-27T03:32:44.083Z,12.88
2022-08-27T03:35:12.826Z,11.52
2022-08-27T03:37:40.422Z,12.50
2022-08-27T03:40:08.572Z,12.43
2022-08-27T03:42:36.551Z,11.73
2022-08-27T03:45:05.565Z,12.00
2022-08-27T03:47:33.250Z,12.70
2022-08-27T03:50:01.284Z,12.10
2022-08-27T03:52:29.707Z,11.93
2022-08-27T03:54:58.760Z,12.02
2022-08-27T03:57:26.875Z,11.95
2022-08-27T03:59:55.311Z,20.65
2022-08-27T04:02:22.714Z,20.27
2022-08-27T04:04:50.096Z,14.52
2022-08-27T04:07:17.693Z,15.02
2022-08-27T04:09:45.371Z,13.52
2022-08-27T04:12:12.683Z,12.75
2022-08-27T04:14:40.300Z,12.68
2022-08-27T04:17:07.634Z,12.82
2022-08-27T04:19:35.319Z,12.43
2022-08-27T04:22:06.052Z,12.40
2022-08-27T04:24:35.703Z,13.20
2022-08-27T04:27:06.554Z,12.90
2022-08-27T04:29:34.627Z,12.40
2022-08-27T04:32:02.238Z,12.85
2022-08-27T04:34:31.090Z,11.55
2022-08-27T04:36:59.202Z,12.52
2022-08-27T04:39:28.527Z,13.48
2022-08-27T04:41:58.339Z,11.75
2022-08-27T04:44:28.763Z,13.52
2022-08-27T04:46:58.179Z,12.63
2022-08-27T04:49:27.455Z,13.10
2022-08-27T04:51:55.990Z,12.40
2022-08-27T04:54:32.179Z,13.57
2022-08-27T04:57:00.760Z,12.98
2022-08-27T04:59:28.089Z,13.63
2022-08-27T05:01:55.554Z,13.77
2022-08-27T05:04:23.316Z,12.85
2022-08-27T05:06:54.854Z,12.70
2022-08-27T05:09:24.621Z,13.23
2022-08-27T05:11:55.628Z,13.45
2022-08-27T05:14:25.513Z,14.60
2022-08-27T05:16:52.960Z,14.77
2022-08-27T05:19:20.546Z,13.50
2022-08-27T05:21:51.518Z,14.57
2022-08-27T05:24:19.104Z,14.18
2022-08-27T05:26:47.483Z,13.90
2022-08-27T05:29:15.711Z,13.73
2022-08-27T05:31:43.549Z,15.00
2022-08-27T05:34:16.899Z,13.73
2022-08-27T05:36:54.409Z,14.73
2022-08-27T05:39:22.182Z,15.10
2022-08-27T05:41:53.389Z,14.23
2022-08-27T05:47:09.459Z,12.27
2022-08-27T05:49:38.018Z,13.60
2022-08-27T05:52:12.334Z,12.02
2022-08-27T05:54:40.100Z,10.60
2022-08-27T05:57:09.603Z,11.90
2022-08-27T05:59:55.711Z,10.52
2022-08-27T06:02:23.470Z,11.45
2022-08-27T06:04:50.944Z,11.35
2022-08-27T06:07:19.316Z,10.63
2022-08-27T06:09:47.217Z,10.45
2022-08-27T06:12:14.689Z,10.45
2022-08-27T06:14:42.367Z,10.90
2022-08-27T06:17:09.821Z,10.48
2022-08-27T06:19:37.328Z,9.68
2022-08-27T06:22:55.802Z,9.60
2022-08-27T06:25:23.634Z,9.23
2022-08-27T06:27:55.947Z,9.35
2022-08-27T06:34:30.669Z,7.10
2022-08-27T06:36:57.984Z,9.05
2022-08-27T06:39:26.150Z,7.70
2022-08-27T06:41:53.614Z,8.02
2022-08-27T06:44:25.776Z,8.10
2022-08-27T06:46:53.635Z,8.10
2022-08-27T06:49:21.641Z,8.20
2022-08-27T06:51:49.449Z,8.90
2022-08-27T06:54:18.529Z,8.25
2022-08-27T06:59:33.463Z,7.97
2022-08-27T07:02:01.060Z,7.50
2022-08-27T07:04:32.444Z,8.18
2022-08-27T07:07:02.380Z,7.78
2022-08-27T07:09:32.721Z,7.05
2022-08-27T07:12:00.505Z,7.25
2022-08-27T07:14:27.966Z,6.97
2022-08-27T07:16:55.473Z,7.13
2022-08-27T07:19:23.173Z,7.13
2022-08-27T07:21:50.882Z,6.47
2022-08-27T07:24:19.255Z,7.20
2022-08-27T07:26:46.921Z,6.50
2022-08-27T07:29:15.282Z,6.90
2022-08-27T07:31:43.819Z,6.53
2022-08-27T07:34:11.590Z,5.85
2022-08-27T07:36:39.049Z,6.50
2022-08-27T07:39:07.141Z,6.55
2022-08-27T07:41:57.469Z,6.35
2022-08-27T07:44:26.054Z,6.45
2022-08-27T07:46:57.144Z,7.47
2022-08-27T07:49:27.610Z,6.40
2022-08-27T07:51:55.165Z,6.82
2022-08-27T07:54:23.341Z,5.72
2022-08-27T07:56:55.292Z,6.75
2022-08-27T07:59:27.532Z,6.10
2022-08-27T08:01:56.308Z,5.95
2022-08-27T08:04:24.164Z,5.82
2022-08-27T08:06:52.046Z,6.45
2022-08-27T08:09:22.269Z,6.82
2022-08-27T08:11:50.770Z,5.70
2022-08-27T08:14:19.490Z,5.53
2022-08-27T08:16:46.844Z,4.93
2022-08-27T08:19:14.555Z,5.35
2022-08-27T08:21:42.797Z,5.03
2022-08-27T08:24:10.203Z,5.38
2022-08-27T08:26:37.452Z,5.10
2022-08-27T08:29:05.318Z,5.53
2022-08-27T08:31:32.713Z,6.60
2022-08-27T08:34:00.972Z,4.97
2022-08-27T08:36:28.694Z,5.03
2022-08-27T08:38:56.194Z,5.47
2022-08-27T08:41:34.089Z,4.93
2022-08-27T08:44:32.729Z,4.82
2022-08-27T08:47:17.306Z,4.85
2022-08-27T08:49:58.063Z,4.60
2022-08-27T08:52:34.668Z,5.13
2022-08-27T08:55:11.471Z,5.13
2022-08-27T08:58:14.919Z,5.63
2022-08-27T09:00:45.240Z,4.15
2022-08-27T09:03:14.842Z,4.85
2022-08-27T09:05:49.311Z,4.45
2022-08-27T09:08:43.985Z,5.22
2022-08-27T09:11:35.384Z,5.22
2022-08-27T09:17:21.066Z,3.80
2022-08-27T09:19:52.357Z,4.20
2022-08-27T09:22:25.579Z,4.03
2022-08-27T09:25:18.981Z,4.40
2022-08-27T09:27:49.676Z,5.15
2022-08-27T09:30:32.559Z,4.40
2022-08-27T09:33:04.898Z,4.43
2022-08-27T09:35:42.281Z,4.05
2022-08-27T09:38:10.062Z,3.70
2022-08-27T09:40:49.400Z,3.63
2022-08-27T09:43:17.022Z,4.10
2022-08-27T09:45:51.710Z,4.28
2022-08-27T09:48:28.236Z,4.57
2022-08-27T09:50:58.639Z,4.68
2022-08-27T09:53:40.010Z,4.07
2022-08-27T09:56:09.839Z,4.47
2022-08-27T09:58:43.793Z,4.32
2022-08-27T10:01:23.888Z,4.30
2022-08-27T10:04:14.757Z,4.63
2022-08-27T10:06:49.410Z,4.53
2022-08-27T10:09:36.173Z,4.45
2022-08-27T10:12:19.738Z,5.50
2022-08-27T10:14:55.252Z,4.80
2022-08-27T10:17:37.942Z,4.38
2022-08-27T10:20:34.189Z,4.70
2022-08-27T10:23:32.785Z,4.25
2022-08-27T10:26:15.403Z,4.82
2022-08-27T10:29:14.601Z,4.45
2022-08-27T10:32:06.448Z,4.75
2022-08-27T10:35:07.642Z,4.05
2022-08-27T10:37:44.825Z,5.32
2022-08-27T10:40:27.376Z,4.28
2022-08-27T10:43:05.856Z,4.40
2022-08-27T10:45:36.307Z,3.70
2022-08-27T10:48:31.543Z,4.60
2022-08-27T10:51:11.985Z,4.13
2022-08-27T10:53:51.599Z,4.20
2022-08-27T10:56:31.473Z,7.25
2022-08-27T10:59:17.655Z,4.70
2022-08-27T11:02:00.438Z,4.80
2022-08-27T11:04:37.581Z,4.40
2022-08-27T11:07:09.938Z,4.78
2022-08-27T11:09:58.864Z,3.78
2022-08-27T11:12:37.138Z,4.20
2022-08-27T11:15:13.292Z,3.42
2022-08-27T11:18:00.007Z,4.00
2022-08-27T11:20:45.081Z,5.05
2022-08-27T11:23:37.457Z,4.25
2022-08-27T11:26:05.800Z,4.00
2022-08-27T11:28:42.543Z,4.07
2022-08-27T11:31:17.630Z,2.78
2022-08-27T11:34:10.388Z,3.90
2022-08-27T11:36:54.648Z,3.45
2022-08-27T11:39:51.820Z,4.45
2022-08-27T11:42:52.303Z,3.85
2022-08-27T11:45:30.990Z,3.50
2022-08-27T11:48:18.338Z,3.00
2022-08-27T11:51:23.667Z,4.05
2022-08-27T11:54:02.666Z,3.95
2022-08-27T11:56:30.118Z,3.25
2022-08-27T11:59:11.387Z,3.28
2022-08-27T12:01:40.589Z,4.15
2022-08-27T12:04:25.103Z,2.70
2022-08-27T12:07:01.844Z,3.33
2022-08-27T12:09:30.080Z,3.15
2022-08-27T12:12:28.737Z,3.53
2022-08-27T12:14:59.600Z,2.42
2022-08-27T12:17:39.183Z,3.28
2022-08-27T12:23:44.333Z,3.05
2022-08-27T12:26:19.179Z,5.53
2022-08-27T12:28:47.580Z,2.90
2022-08-27T12:31:23.759Z,3.22
2022-08-27T12:33:54.369Z,4.43
2022-08-27T12:36:28.479Z,4.00
2022-08-27T12:38:59.368Z,3.70
2022-08-27T12:41:44.674Z,3.45
2022-08-27T12:44:17.318Z,3.95
2022-08-27T12:47:10.715Z,4.65
2022-08-27T12:49:52.591Z,3.92
2022-08-27T12:52:46.895Z,4.13
2022-08-27T12:55:23.767Z,3.63
2022-08-27T12:58:15.332Z,3.30
2022-08-27T13:01:18.367Z,3.53
2022-08-27T13:03:51.632Z,3.65
2022-08-27T13:06:36.695Z,3.38
2022-08-27T13:09:08.025Z,3.38
2022-08-27T13:11:46.958Z,3.17
2022-08-27T13:14:18.202Z,4.20
2022-08-27T13:16:58.017Z,3.10
2022-08-27T13:19:29.594Z,4.30
2022-08-27T13:21:57.932Z,3.42
2022-08-27T13:24:33.785Z,4.43
2022-08-27T13:27:07.435Z,4.85
2022-08-27T13:29:36.605Z,4.57
2022-08-27T13:32:05.336Z,3.97
2022-08-27T13:34:40.456Z,3.53
2022-08-27T13:37:51.156Z,3.60
2022-08-27T13:40:39.346Z,3.95
2022-08-27T13:43:27.790Z,5.72
2022-08-27T13:46:03.735Z,4.63
2022-08-27T13:48:31.154Z,3.45
2022-08-27T13:50:59.750Z,4.47
2022-08-27T13:54:03.268Z,4.57
2022-08-27T13:56:37.433Z,3.83
2022-08-27T13:59:28.050Z,4.18
2022-08-27T14:02:11.720Z,3.85
2022-08-27T14:04:45.127Z,4.38
2022-08-27T14:07:32.865Z,4.60
2022-08-27T14:10:07.347Z,4.57
2022-08-27T14:12:38.633Z,4.72
2022-08-27T14:19:29.016Z,4.32
2022-08-27T14:22:46.551Z,4.22
2022-08-27T14:25:39.231Z,4.65
2022-08-27T14:28:47.421Z,3.72
2022-08-27T14:31:36.733Z,3.72
2022-08-27T14:34:22.041Z,4.82
2022-08-27T14:36:54.886Z,4.07
2022-08-27T14:39:26.092Z,4.20
2022-08-27T14:42:05.693Z,4.05
2022-08-27T14:44:36.220Z,4.13
2022-08-27T14:47:09.649Z,4.47
2022-08-27T14:49:40.864Z,5.18
2022-08-27T14:52:10.869Z,4.10
2022-08-27T14:54:39.187Z,4.78
2022-08-27T14:57:08.146Z,4.80
2022-08-27T14:59:37.038Z,4.68
2022-08-27T15:02:08.278Z,3.75
2022-08-27T15:04:35.706Z,4.60
2022-08-27T15:07:05.094Z,4.43
2022-08-27T15:09:34.211Z,4.63
2022-08-27T15:12:01.775Z,4.72
2022-08-27T15:14:36.554Z,5.00
2022-08-27T15:17:22.088Z,4.28
2022-08-27T15:19:55.657Z,5.05
2022-08-27T15:22:27.383Z,4.13
2022-08-27T15:24:57.967Z,4.35
2022-08-27T15:27:37.914Z,4.45
2022-08-27T15:30:10.179Z,4.25
2022-08-27T15:32:43.151Z,4.90
2022-08-27T15:35:14.718Z,4.80
2022-08-27T15:37:43.471Z,4.20
2022-08-27T15:40:13.060Z,5.07
2022-08-27T15:42:40.943Z,4.53
2022-08-27T15:45:11.566Z,5.20
2022-08-27T15:47:39.075Z,4.50
2022-08-27T15:50:07.790Z,4.25
2022-08-27T15:52:41.073Z,4.85
2022-08-27T15:55:28.602Z,4.72
2022-08-27T15:57:56.633Z,4.60
2022-08-27T16:00:25.186Z,4.13
2022-08-27T16:02:53.043Z,3.90
2022-08-27T16:05:22.348Z,4.43
2022-08-27T16:07:50.236Z,4.88
2022-08-27T16:10:18.311Z,5.35
2022-08-27T16:12:46.425Z,4.88
2022-08-27T16:15:14.389Z,3.95
2022-08-27T16:17:42.751Z,4.45
2022-08-27T16:20:12.358Z,4.18
2022-08-27T16:22:40.152Z,4.72
2022-08-27T16:25:09.282Z,4.22
2022-08-27T16:27:38.881Z,4.38
2022-08-27T16:30:07.323Z,5.15
2022-08-27T16:32:34.910Z,5.28
2022-08-27T16:35:02.626Z,4.72
2022-08-27T16:37:30.162Z,4.82
2022-08-27T16:40:00.290Z,5.72
2022-08-27T16:42:28.171Z,4.50
2022-08-27T16:44:55.668Z,4.85
2022-08-27T16:47:23.005Z,6.10
2022-08-27T16:50:26.402Z,4.28
2022-08-27T16:52:53.735Z,5.13
2022-08-27T16:55:21.274Z,5.30
2022-08-27T16:57:48.519Z,4.80
2022-08-27T17:00:15.864Z,5.18
2022-08-27T17:02:43.495Z,4.97
2022-08-27T17:05:33.514Z,4.90
2022-08-27T17:07:59.534Z,5.53
2022-08-27T17:10:32.170Z,5.28
2022-08-27T17:13:00.133Z,5.65
2022-08-27T17:15:27.536Z,6.10
2022-08-27T17:17:58.504Z,6.03
2022-08-27T17:20:26.186Z,7.30
2022-08-27T17:22:59.537Z,6.70
2022-08-27T17:25:29.849Z,6.53
2022-08-27T17:28:00.168Z,6.63
2022-08-27T17:30:28.830Z,6.47
2022-08-27T17:32:56.293Z,15.05
2022-08-27T17:35:23.711Z,10.15
2022-08-27T17:37:51.359Z,7.93
2022-08-27T17:40:18.763Z,8.93
2022-08-27T17:42:47.115Z,13.07
2022-08-27T17:45:16.588Z,9.18
2022-08-27T17:47:44.216Z,25.85
2022-08-27T17:50:11.586Z,150.60
2022-08-27T17:52:40.216Z,80.20
2022-08-27T17:55:08.013Z,24.65
2022-08-27T17:57:41.108Z,21.23
2022-08-27T18:00:11.906Z,24.25
2022-08-27T18:02:45.547Z,28.88
2022-08-27T18:05:14.601Z,16.73
2022-08-27T18:07:43.514Z,14.10
2022-08-27T18:10:13.211Z,8.23
2022-08-27T18:12:42.161Z,9.18
2022-08-27T18:15:16.480Z,9.15
2022-08-27T18:17:44.333Z,8.80
2022-08-27T18:20:13.989Z,8.75
2022-08-27T18:22:48.328Z,9.10
2022-08-27T18:25:18.960Z,8.38
2022-08-27T18:27:49.197Z,9.13
2022-08-27T18:30:16.841Z,10.20
2022-08-27T18:32:44.680Z,7.93
2022-08-27T18:35:19.604Z,11.10
2022-08-27T18:37:47.755Z,14.65
2022-08-27T18:40:18.453Z,14.63
2022-08-27T18:42:46.618Z,10.07
2022-08-27T18:45:18.072Z,12.68
2022-08-27T18:47:45.936Z,12.40
2022-08-27T18:50:17.586Z,11.38
2022-08-27T18:52:49.722Z,13.05
2022-08-27T18:55:20.907Z,9.98
2022-08-27T18:57:48.715Z,8.95
2022-08-27T19:00:19.560Z,9.23
2022-08-27T19:02:52.441Z,10.00
2022-08-27T19:05:24.438Z,11.18
2022-08-27T19:07:52.206Z,11.40
2022-08-27T19:10:20.860Z,10.90
2022-08-27T19:12:48.947Z,11.82
2022-08-27T19:15:16.527Z,11.25
2022-08-27T19:17:53.356Z,10.82
2022-08-27T19:20:21.135Z,12.82
2022-08-27T19:22:49.050Z,29.13
2022-08-27T19:25:17.730Z,29.95
2022-08-27T19:27:46.592Z,14.73
2022-08-27T19:30:16.258Z,12.20
2022-08-27T19:32:43.762Z,10.52
2022-08-27T19:35:11.726Z,10.63
2022-08-27T19:37:43.859Z,10.63
2022-08-27T19:40:14.941Z,11.10
2022-08-27T19:42:43.138Z,11.45
2022-08-27T19:45:11.319Z,14.30
2022-08-27T19:47:39.737Z,14.77
2022-08-27T19:50:08.089Z,13.40
2022-08-27T19:52:35.711Z,12.88
2022-08-27T19:55:13.469Z,13.07
2022-08-27T19:57:43.259Z,12.63
2022-08-27T20:00:13.414Z,14.00
2022-08-27T20:02:41.772Z,15.07
2022-08-27T20:05:18.320Z,13.25
2022-08-27T20:07:50.032Z,10.82
2022-08-27T20:10:21.655Z,11.82
2022-08-27T20:12:50.637Z,12.23
2022-08-27T20:15:21.304Z,12.07
2022-08-27T20:17:52.629Z,15.57
2022-08-27T20:20:23.257Z,15.65
2022-08-27T20:22:51.957Z,24.08
2022-08-27T20:25:22.371Z,20.73
2022-08-27T20:27:50.564Z,19.98
2022-08-27T20:30:19.990Z,17.73
2022-08-27T20:32:47.781Z,18.17
2022-08-27T20:35:16.250Z,17.75
2022-08-27T20:37:44.398Z,16.85
2022-08-27T20:40:23.251Z,15.68
2022-08-27T20:42:52.222Z,13.95
2022-08-27T20:45:20.445Z,14.60
2022-08-27T20:47:49.707Z,14.38
2022-08-27T20:50:18.441Z,13.93
2022-08-27T20:52:46.316Z,17.23
2022-08-27T20:55:15.056Z,15.40
2022-08-27T20:58:06.508Z,14.48
2022-08-27T21:00:38.226Z,19.58
2022-08-27T21:03:05.980Z,13.55
2022-08-27T21:05:34.883Z,13.52
2022-08-27T21:08:05.563Z,12.35
2022-08-27T21:10:34.147Z,13.23
2022-08-27T21:13:04.796Z,14.05
2022-08-27T21:15:33.030Z,13.43
2022-08-27T21:18:00.479Z,13.10
2022-08-27T21:20:28.097Z,16.77
2022-08-27T21:22:57.931Z,18.20
2022-08-27T21:25:27.070Z,18.45
2022-08-27T21:27:57.153Z,14.93
2022-08-27T21:30:26.364Z,14.35
2022-08-27T21:32:57.590Z,17.10
2022-08-27T21:35:28.630Z,15.55
2022-08-27T21:37:57.407Z,14.40
2022-08-27T21:40:26.562Z,14.82
2022-08-27T21:42:55.801Z,14.65
2022-08-27T21:45:23.519Z,15.27
2022-08-27T21:47:52.133Z,14.45
2022-08-27T21:50:20.995Z,16.92
2022-08-27T21:52:48.796Z,20.25
2022-08-27T21:55:17.081Z,23.10
2022-08-27T21:57:44.678Z,18.80
2022-08-27T22:00:28.669Z,20.65
2022-08-27T22:02:57.292Z,19.05
2022-08-27T22:05:24.795Z,17.95
2022-08-27T22:07:52.016Z,17.77
2022-08-27T22:10:19.612Z,15.18
2022-08-27T22:12:47.018Z,15.50
2022-08-27T22:15:14.870Z,16.95
2022-08-27T22:17:42.332Z,16.25
2022-08-27T22:20:10.909Z,23.27
2022-08-27T22:22:38.703Z,23.55
2022-08-27T22:25:08.590Z,20.75
2022-08-27T22:27:36.403Z,19.30
2022-08-27T22:30:09.594Z,23.52
2022-08-27T22:32:39.782Z,19.52
2022-08-27T22:35:12.564Z,16.95
2022-08-27T22:37:40.162Z,16.10
2022-08-27T22:40:19.505Z,17.38
2022-08-27T22:42:49.636Z,16.50
2022-08-27T22:45:18.485Z,15.25
2022-08-27T22:47:46.470Z,14.90
2022-08-27T22:50:14.240Z,15.90
2022-08-27T22:52:42.431Z,15.68
2022-08-27T22:55:15.321Z,15.85
2022-08-27T22:57:42.796Z,16.40
2022-08-27T23:00:14.539Z,17.35
2022-08-27T23:02:41.938Z,15.63
2022-08-27T23:05:10.641Z,15.32
2022-08-27T23:07:38.595Z,15.02
2022-08-27T23:10:09.262Z,15.52
2022-08-27T23:12:39.210Z,15.85
2022-08-27T23:15:08.589Z,15.40
2022-08-27T23:17:36.729Z,15.80
2022-08-27T23:20:07.332Z,15.55
2022-08-27T23:22:35.410Z,16.55
2022-08-27T23:25:22.019Z,17.95
2022-08-27T23:27:49.463Z,18.10
2022-08-27T23:30:18.507Z,17.30
2022-08-27T23:32:48.874Z,15.43
2022-08-27T23:35:23.163Z,16.40
2022-08-27T23:37:51.679Z,22.25
2022-08-27T23:40:21.049Z,20.38
2022-08-27T23:42:49.665Z,18.25
2022-08-27T23:45:20.656Z,20.02
2022-08-27T23:47:48.108Z,17.58
2022-08-27T23:50:16.093Z,21.20
2022-08-27T23:52:43.868Z,18.08
2022-08-27T23:55:12.716Z,17.65
2022-08-27T23:57:40.761Z,17.08
